Time;durP1;ratioP1;P1;durP2;ratioP2;P2;SDS_P1;SDS_P2;PMS_P1;PMS_P2;Temp;Humidity;BMP_temperature;BMP_pressure;BME280_temperature;BME280_humidity;BME280_pressure;Samples;Min_cycle;Max_cycle;Signal;HPM_P1;HPM_P2
2021/05/01 00:00:08;;;;;;;11.18;5.13;;;19.80;80.60;;;;;;5023461;28;20116;-70
2021/05/01 00:02:35;;;;;;;9.35;4.82;;;19.90;80.10;;;;;;5029448;28;20029;-69
2021/05/01 00:05:03;;;;;;;9.80;4.80;;;20.00;80.30;;;;;;5029107;28;20029;-64
2021/05/01 00:07:31;;;;;;;5.18;4.47;;;20.30;79.50;;;;;;5010894;28;20068;-64
2021/05/01 00:09:58;;;;;;;3.72;3.20;;;20.50;78.40;;;;;;5010672;28;20137;-75
2021/05/01 00:12:26;;;;;;;5.07;3.97;;;20.70;78.30;;;;;;5010383;28;20087;-65
2021/05/01 00:14:53;;;;;;;4.05;3.13;;;20.70;78.60;;;;;;5010568;28;20049;-70
2021/05/01 00:17:21;;;;;;;3.63;2.85;;;20.90;77.20;;;;;;5011700;28;20029;-71
2021/05/01 00:19:48;;;;;;;3.72;2.90;;;20.90;77.70;;;;;;5012021;28;20084;-70
2021/05/01 00:22:15;;;;;;;3.33;2.30;;;20.80;77.90;;;;;;5012058;28;20018;-64
2021/05/01 00:24:43;;;;;;;5.05;2.45;;;20.80;77.50;;;;;;5010972;28;20276;-64
2021/05/01 00:27:10;;;;;;;4.45;2.90;;;21.00;77.20;;;;;;5011234;28;20500;-64
2021/05/01 00:29:38;;;;;;;7.22;3.72;;;21.20;77.50;;;;;;5026978;28;20038;-60
2021/05/01 00:32:05;;;;;;;7.82;4.85;;;21.40;76.00;;;;;;5026614;28;20048;-61
2021/05/01 00:34:33;;;;;;;6.85;5.00;;;21.50;75.20;;;;;;5029344;28;20287;-60
2021/05/01 00:37:02;;;;;;;7.30;3.45;;;21.60;75.30;;;;;;5029869;28;20469;-69
2021/05/01 00:39:29;;;;;;;4.03;3.22;;;21.70;73.90;;;;;;5012782;28;20028;-61
2021/05/01 00:41:57;;;;;;;4.72;3.10;;;22.10;73.10;;;;;;5028900;28;20022;-64
2021/05/01 00:44:24;;;;;;;4.60;3.22;;;22.00;72.50;;;;;;5016708;28;20038;-69
2021/05/01 00:46:52;;;;;;;4.03;3.03;;;21.90;72.50;;;;;;5029356;28;20434;-64
2021/05/01 00:49:19;;;;;;;5.25;3.30;;;22.00;72.80;;;;;;5028331;28;20532;-73
2021/05/01 00:51:46;;;;;;;5.90;3.50;;;22.10;73.90;;;;;;5010776;28;20041;-66
2021/05/01 00:54:14;;;;;;;6.25;3.53;;;22.10;74.00;;;;;;5029617;28;20021;-63
2021/05/01 00:56:42;;;;;;;6.85;3.72;;;22.00;73.30;;;;;;5028901;28;20025;-72
2021/05/01 00:59:10;;;;;;;5.13;3.30;;;21.90;73.50;;;;;;5011894;28;20060;-68
2021/05/01 01:01:47;;;;;;;4.03;2.75;;;21.70;74.50;;;;;;5028542;28;20048;-67
2021/05/01 01:04:15;;;;;;;9.32;3.38;;;21.60;74.60;;;;;;5027465;28;20032;-62
2021/05/01 01:06:42;;;;;;;6.97;4.28;;;21.60;74.10;;;;;;5015176;28;20029;-65
2021/05/01 01:09:10;;;;;;;3.13;2.67;;;21.60;74.50;;;;;;5029335;28;20359;-70
2021/05/01 01:11:38;;;;;;;5.88;4.05;;;21.70;74.70;;;;;;5010105;28;20545;-65
2021/05/01 01:14:07;;;;;;;5.75;4.32;;;21.70;73.80;;;;;;5027546;28;20021;-72
2021/05/01 01:16:35;;;;;;;6.53;4.60;;;21.70;73.90;;;;;;5028051;28;20022;-70
2021/05/01 01:19:03;;;;;;;6.03;3.92;;;21.70;73.20;;;;;;5025233;28;20068;-71
2021/05/01 01:21:30;;;;;;;6.07;3.63;;;21.90;74.00;;;;;;5024676;28;20401;-66
2021/05/01 01:23:57;;;;;;;7.13;4.28;;;22.20;72.40;;;;;;5017131;28;20022;-64
2021/05/01 01:26:24;;;;;;;7.68;5.05;;;22.60;72.10;;;;;;5026715;28;20453;-66
2021/05/01 01:28:52;;;;;;;7.40;4.63;;;23.30;70.00;;;;;;5028351;28;20030;-64
2021/05/01 01:31:19;;;;;;;7.53;5.00;;;23.50;67.60;;;;;;5028585;28;20064;-72
2021/05/01 01:33:47;;;;;;;5.47;3.90;;;23.70;66.70;;;;;;5027380;28;20069;-66
2021/05/01 01:36:14;;;;;;;5.68;2.90;;;23.90;66.30;;;;;;5027069;28;20168;-69
2021/05/01 01:38:41;;;;;;;5.10;3.20;;;24.10;64.80;;;;;;5028138;28;20040;-66
2021/05/01 01:41:09;;;;;;;7.88;3.90;;;24.20;64.30;;;;;;5027845;28;20033;-66
2021/05/01 01:43:37;;;;;;;9.82;4.35;;;24.20;65.20;;;;;;5009706;28;20052;-74
2021/05/01 01:46:05;;;;;;;7.70;4.15;;;24.40;64.00;;;;;;5025820;28;20030;-73
2021/05/01 01:48:32;;;;;;;7.00;4.45;;;24.60;63.60;;;;;;5025421;28;20021;-64
2021/05/01 01:51:00;;;;;;;6.53;3.88;;;24.80;62.30;;;;;;5026220;28;20430;-64
2021/05/01 01:53:27;;;;;;;7.20;4.13;;;24.80;62.60;;;;;;5025860;28;20048;-63
2021/05/01 01:55:55;;;;;;;5.85;4.38;;;25.00;61.20;;;;;;5025970;28;20029;-65
2021/05/01 01:58:23;;;;;;;6.22;4.22;;;24.90;61.60;;;;;;5022307;28;20361;-71
2021/05/01 02:00:52;;;;;;;4.97;4.25;;;24.40;62.00;;;;;;5025816;28;20014;-71
2021/05/01 02:03:20;;;;;;;8.18;4.55;;;24.10;63.20;;;;;;5022602;28;20035;-67
2021/05/01 02:05:47;;;;;;;6.18;4.40;;;23.90;63.50;;;;;;5023527;28;20504;-67
2021/05/01 02:08:15;;;;;;;6.60;5.15;;;23.80;63.80;;;;;;5024371;28;20026;-71
2021/05/01 02:10:43;;;;;;;8.20;5.72;;;23.60;64.40;;;;;;5026765;28;20021;-67
2021/05/01 02:13:10;;;;;;;7.53;5.57;;;23.40;64.30;;;;;;5027014;28;20397;-68
2021/05/01 02:15:38;;;;;;;6.05;4.65;;;23.40;66.40;;;;;;5024551;28;20092;-63
2021/05/01 02:18:05;;;;;;;5.72;5.03;;;23.40;66.30;;;;;;5027262;28;20031;-66
2021/05/01 02:20:37;;;;;;;6.05;5.45;;;23.50;65.10;;;;;;5028132;28;20022;-64
2021/05/01 02:23:06;;;;;;;6.88;5.88;;;23.40;66.10;;;;;;5027999;28;20080;-65
2021/05/01 02:25:34;;;;;;;5.82;5.03;;;23.20;65.90;;;;;;5027241;28;20105;-70
2021/05/01 02:28:01;;;;;;;6.15;5.55;;;23.30;65.50;;;;;;5026633;28;20017;-72
2021/05/01 02:30:29;;;;;;;6.70;6.10;;;23.30;64.80;;;;;;5027320;28;20017;-66
2021/05/01 02:32:58;;;;;;;6.43;5.82;;;23.30;65.50;;;;;;5033720;22;20013;-64
2021/05/01 02:35:31;;;;;;;5.97;5.45;;;23.30;64.60;;;;;;5002714;28;20357;-63
2021/05/01 02:37:59;;;;;;;8.02;6.43;;;23.30;65.00;;;;;;5001129;28;20018;-71
2021/05/01 02:40:31;;;;;;;7.00;6.28;;;23.50;65.80;;;;;;5000706;28;20552;-66
2021/05/01 02:43:07;;;;;;;6.47;5.90;;;24.10;63.50;;;;;;5001702;28;20044;-70
2021/05/01 02:45:35;;;;;;;6.38;5.47;;;24.40;64.00;;;;;;4998926;28;20025;-67
2021/05/01 02:48:05;;;;;;;6.65;5.50;;;24.80;61.50;;;;;;4999739;28;20054;-63
2021/05/01 02:50:33;;;;;;;7.32;6.63;;;24.50;60.60;;;;;;5000541;28;20029;-66
2021/05/01 02:53:00;;;;;;;7.50;6.80;;;24.30;62.40;;;;;;5000590;28;20072;-66
2021/05/01 02:55:28;;;;;;;9.75;6.57;;;24.60;62.40;;;;;;4999066;28;20396;-62
2021/05/01 02:57:56;;;;;;;7.10;5.90;;;25.00;60.70;;;;;;4999970;28;20022;-70
2021/05/01 03:00:26;;;;;;;8.18;6.80;;;24.90;60.20;;;;;;5000760;28;20022;-67
2021/05/01 03:02:54;;;;;;;7.07;6.38;;;24.90;60.70;;;;;;4998167;28;20026;-62
2021/05/01 03:05:23;;;;;;;8.85;5.90;;;25.00;60.40;;;;;;5001522;28;20150;-62
2021/05/01 03:07:50;;;;;;;6.75;6.03;;;25.30;59.50;;;;;;5000136;28;20028;-64
2021/05/01 03:10:23;;;;;;;6.80;5.82;;;25.30;59.10;;;;;;5002322;28;20460;-65
2021/05/01 03:12:51;;;;;;;6.25;5.60;;;25.60;58.60;;;;;;5000452;28;20045;-64
2021/05/01 03:15:19;;;;;;;9.90;6.53;;;25.70;57.50;;;;;;5000147;28;20049;-66
2021/05/01 03:17:47;;;;;;;8.80;8.00;;;25.50;57.80;;;;;;5000788;28;20041;-64
2021/05/01 03:20:16;;;;;;;9.05;6.50;;;25.10;58.80;;;;;;5001838;28;20047;-66
2021/05/01 03:22:46;;;;;;;9.05;8.10;;;25.00;59.00;;;;;;5003501;28;20006;-64
2021/05/01 03:25:14;;;;;;;7.68;6.65;;;25.10;60.30;;;;;;5000699;28;20062;-64
2021/05/01 03:27:42;;;;;;;9.60;6.88;;;24.80;60.40;;;;;;5003803;28;20116;-67
2021/05/01 03:30:14;;;;;;;8.10;6.65;;;25.00;60.10;;;;;;5009132;28;20026;-66
2021/05/01 03:32:43;;;;;;;14.15;12.93;;;25.20;59.60;;;;;;5007892;28;20030;-65
2021/05/01 03:35:13;;;;;;;9.73;7.88;;;25.20;59.60;;;;;;5003806;28;20064;-64
2021/05/01 03:37:40;;;;;;;8.27;6.80;;;25.30;59.00;;;;;;5000770;28;20030;-66
2021/05/01 03:40:09;;;;;;;9.30;6.75;;;25.40;58.40;;;;;;5006532;28;20030;-63
2021/05/01 03:42:38;;;;;;;7.57;6.88;;;25.40;58.10;;;;;;5007338;28;20049;-66
2021/05/01 03:45:06;;;;;;;8.07;6.93;;;25.30;59.20;;;;;;5007376;28;20035;-65
2021/05/01 03:47:33;;;;;;;8.15;6.93;;;25.40;57.80;;;;;;5002981;28;20132;-64
2021/05/01 03:50:01;;;;;;;7.13;6.15;;;25.40;58.00;;;;;;5010138;28;20014;-67
2021/05/01 03:52:28;;;;;;;7.97;7.18;;;25.60;57.30;;;;;;5002342;28;20073;-65
2021/05/01 03:54:55;;;;;;;7.18;6.45;;;25.50;57.50;;;;;;5005119;28;20044;-65
2021/05/01 03:57:23;;;;;;;8.98;7.60;;;25.70;57.60;;;;;;5003361;28;20030;-66
2021/05/01 03:59:50;;;;;;;10.98;7.30;;;25.60;58.50;;;;;;5002385;28;20075;-63
2021/05/01 04:02:18;;;;;;;10.05;7.00;;;25.50;57.70;;;;;;5004107;28;20026;-63
2021/05/01 04:04:45;;;;;;;7.40;6.80;;;25.30;57.80;;;;;;5017010;28;20104;-64
2021/05/01 04:07:13;;;;;;;7.55;6.85;;;25.10;58.50;;;;;;5004899;28;20417;-67
2021/05/01 04:09:40;;;;;;;7.95;7.22;;;24.70;59.90;;;;;;5006092;28;20030;-64
2021/05/01 04:12:08;;;;;;;8.38;7.53;;;24.70;59.90;;;;;;5008780;28;20609;-63
2021/05/01 04:14:35;;;;;;;7.28;6.68;;;24.90;59.30;;;;;;5004156;28;20037;-66
2021/05/01 04:17:03;;;;;;;9.45;7.47;;;25.30;59.50;;;;;;5001404;28;20024;-67
2021/05/01 04:19:30;;;;;;;8.75;7.82;;;25.60;57.50;;;;;;5006776;28;20478;-65
2021/05/01 04:22:03;;;;;;;7.45;6.65;;;26.00;56.60;;;;;;5006208;28;20022;-64
2021/05/01 04:24:32;;;;;;;5.90;5.28;;;26.10;56.50;;;;;;5005475;28;20493;-65
2021/05/01 04:27:00;;;;;;;7.60;6.40;;;25.90;55.40;;;;;;5004022;28;20018;-65
2021/05/01 04:29:27;;;;;;;8.93;6.13;;;25.50;56.40;;;;;;5004146;28;20014;-65
2021/05/01 04:31:55;;;;;;;8.55;6.30;;;25.10;57.50;;;;;;5003856;28;20529;-66
2021/05/01 04:34:22;;;;;;;6.43;5.88;;;25.10;57.10;;;;;;5002651;28;20038;-67
2021/05/01 04:36:49;;;;;;;6.88;6.18;;;25.00;58.10;;;;;;5006319;28;20018;-64
2021/05/01 04:39:17;;;;;;;6.53;5.82;;;24.90;58.10;;;;;;5007133;28;20042;-64
2021/05/01 04:41:45;;;;;;;9.88;6.75;;;24.90;58.30;;;;;;5008904;28;20481;-65
2021/05/01 04:44:12;;;;;;;7.47;6.70;;;24.90;58.40;;;;;;4315135;28;9999978;-66
2021/05/01 04:46:39;;;;;;;9.77;6.95;;;25.20;58.10;;;;;;5005843;28;20078;-65
2021/05/01 04:49:07;;;;;;;9.10;7.03;;;25.40;57.50;;;;;;5022645;28;20037;-66
2021/05/01 04:51:35;;;;;;;7.55;6.28;;;25.80;56.30;;;;;;5008982;28;20018;-64
2021/05/01 04:54:04;;;;;;;9.32;6.80;;;26.30;56.00;;;;;;5001588;28;20040;-63
2021/05/01 04:56:31;;;;;;;7.50;6.70;;;26.50;54.70;;;;;;5004981;28;20033;-64
2021/05/01 04:58:58;;;;;;;6.85;6.15;;;26.60;54.90;;;;;;5008604;28;20084;-65
2021/05/01 05:01:26;;;;;;;7.25;6.55;;;26.70;54.10;;;;;;5005346;28;20037;-64
2021/05/01 05:03:53;;;;;;;9.15;6.38;;;26.70;54.20;;;;;;5005972;28;20026;-67
2021/05/01 05:06:20;;;;;;;6.70;6.10;;;26.80;53.60;;;;;;5003238;28;20030;-65
2021/05/01 05:08:48;;;;;;;7.22;6.22;;;27.00;54.00;;;;;;5008102;28;20116;-67
2021/05/01 05:11:15;;;;;;;7.40;5.57;;;26.90;54.20;;;;;;5002499;28;20032;-66
2021/05/01 05:13:42;;;;;;;6.72;6.03;;;27.10;53.40;;;;;;5001280;28;20375;-65
2021/05/01 05:16:10;;;;;;;6.53;5.93;;;27.10;54.30;;;;;;5008633;28;20014;-67
2021/05/01 05:18:37;;;;;;;7.57;6.57;;;27.20;53.50;;;;;;5023187;28;20414;-65
2021/05/01 05:21:05;;;;;;;7.40;6.32;;;27.10;53.90;;;;;;5005488;28;20053;-70
2021/05/01 05:23:32;;;;;;;6.38;5.85;;;27.10;53.50;;;;;;5002845;28;20262;-66
2021/05/01 05:26:00;;;;;;;6.25;5.65;;;27.00;53.10;;;;;;5005399;28;20025;-66
2021/05/01 05:28:27;;;;;;;10.30;6.30;;;27.10;52.50;;;;;;5001968;28;20041;-67
2021/05/01 05:30:54;;;;;;;6.45;5.82;;;27.30;52.90;;;;;;5001533;28;20069;-67
2021/05/01 05:33:22;;;;;;;6.72;5.50;;;27.40;52.50;;;;;;4993295;28;20041;-68
2021/05/01 05:35:49;;;;;;;5.75;5.05;;;27.50;52.40;;;;;;5006240;28;20355;-66
2021/05/01 05:38:16;;;;;;;5.68;4.82;;;27.80;51.40;;;;;;5001333;28;20073;-65
2021/05/01 05:40:44;;;;;;;8.40;5.45;;;27.70;50.20;;;;;;5004507;28;20032;-67
2021/05/01 05:43:11;;;;;;;5.50;5.00;;;27.80;51.10;;;;;;5005495;28;20155;-64
2021/05/01 05:45:41;;;;;;;5.93;5.40;;;27.80;51.40;;;;;;5006751;28;20026;-67
2021/05/01 05:48:09;;;;;;;6.10;5.40;;;28.00;51.70;;;;;;5005754;28;20397;-65
2021/05/01 05:50:36;;;;;;;7.93;5.32;;;28.10;51.90;;;;;;5003231;28;20033;-64
2021/05/01 05:53:03;;;;;;;7.15;5.07;;;27.80;53.40;;;;;;4997615;28;20038;-64
2021/05/01 05:55:31;;;;;;;5.97;5.38;;;27.30;54.90;;;;;;5006015;28;20454;-64
2021/05/01 05:57:58;;;;;;;7.57;6.13;;;27.30;55.40;;;;;;5007027;28;20033;-63
2021/05/01 06:00:26;;;;;;;6.43;5.13;;;27.40;54.70;;;;;;5006733;28;20050;-64
2021/05/01 06:02:56;;;;;;;6.68;4.78;;;27.50;54.80;;;;;;4999838;28;20057;-63
2021/05/01 06:05:36;;;;;;;6.47;4.30;;;27.30;54.80;;;;;;5008758;28;20022;-63
2021/05/01 06:08:07;;;;;;;14.00;11.93;;;26.50;56.80;;;;;;5000492;28;20025;-67
2021/05/01 06:10:37;;;;;;;15.02;12.85;;;25.80;57.10;;;;;;5005836;28;20503;-64
2021/05/01 06:13:05;;;;;;;16.95;12.93;;;25.20;57.80;;;;;;5001644;28;20026;-64
2021/05/01 06:15:32;;;;;;;14.48;11.63;;;24.70;59.40;;;;;;5001898;28;20060;-65
2021/05/01 06:18:01;;;;;;;13.65;11.40;;;24.30;60.50;;;;;;5000184;28;20505;-65
2021/05/01 06:20:32;;;;;;;13.25;10.50;;;24.10;61.60;;;;;;5002020;28;20464;-67
2021/05/01 06:23:01;;;;;;;10.68;8.27;;;24.00;62.50;;;;;;4999998;28;20088;-66
2021/05/01 06:25:29;;;;;;;8.45;7.22;;;24.50;61.20;;;;;;5000239;28;20129;-65
2021/05/01 06:27:57;;;;;;;6.63;5.93;;;24.90;59.70;;;;;;4999826;28;20588;-64
2021/05/01 06:30:25;;;;;;;7.15;5.22;;;25.20;58.70;;;;;;5001827;28;20030;-66
2021/05/01 06:32:54;;;;;;;7.15;5.40;;;25.20;58.20;;;;;;5005036;28;20036;-63
2021/05/01 06:35:21;;;;;;;6.45;4.68;;;25.30;58.50;;;;;;5006530;28;20029;-62
2021/05/01 06:37:51;;;;;;;6.72;4.72;;;25.30;58.00;;;;;;5002737;28;20053;-65
2021/05/01 06:40:22;;;;;;;7.68;5.05;;;25.30;58.30;;;;;;4999315;28;20069;-69
2021/05/01 06:43:01;;;;;;;5.27;4.20;;;25.30;58.80;;;;;;5000948;28;20100;-73
2021/05/01 06:45:29;;;;;;;5.28;3.25;;;25.20;59.00;;;;;;5016403;28;20026;-64
2021/05/01 06:48:02;;;;;;;4.93;3.75;;;25.10;59.40;;;;;;5004813;28;20037;-65
2021/05/01 06:50:30;;;;;;;6.50;3.30;;;24.80;60.10;;;;;;5003746;28;20072;-66
2021/05/01 06:52:58;;;;;;;6.45;3.13;;;24.60;60.50;;;;;;5005800;28;20115;-66
2021/05/01 06:55:30;;;;;;;3.50;2.20;;;24.50;61.40;;;;;;4999885;28;20053;-71
2021/05/01 06:57:59;;;;;;;3.35;2.08;;;24.30;62.10;;;;;;5001141;28;20666;-63
2021/05/01 07:00:28;;;;;;;3.00;1.95;;;23.90;62.90;;;;;;5004385;28;20037;-65
2021/05/01 07:03:03;;;;;;;3.05;1.90;;;23.40;64.50;;;;;;5008503;28;20509;-67
2021/05/01 07:05:30;;;;;;;3.92;1.98;;;23.20;65.10;;;;;;5008393;28;20022;-68
2021/05/01 07:07:58;;;;;;;3.80;2.08;;;22.90;66.60;;;;;;5003856;28;20053;-72
2021/05/01 07:10:26;;;;;;;4.65;1.90;;;22.40;68.10;;;;;;5015708;28;20508;-71
2021/05/01 07:12:54;;;;;;;4.68;2.10;;;22.10;69.30;;;;;;5009175;28;20033;-72
2021/05/01 07:15:22;;;;;;;3.67;1.83;;;21.80;70.40;;;;;;5010074;28;20064;-65
2021/05/01 07:17:53;;;;;;;4.72;2.47;;;21.50;71.80;;;;;;5007949;28;20116;-67
2021/05/01 07:20:22;;;;;;;5.77;3.07;;;21.30;72.90;;;;;;5002787;28;20030;-67
2021/05/01 07:22:53;;;;;;;4.30;3.25;;;21.20;73.20;;;;;;5007294;28;20355;-66
2021/05/01 07:25:23;;;;;;;6.13;3.28;;;21.00;74.40;;;;;;5009525;28;20460;-65
2021/05/01 07:28:02;;;;;;;9.05;2.78;;;21.00;75.00;;;;;;5002469;28;20065;-70
2021/05/01 07:30:32;;;;;;;6.78;2.50;;;20.80;76.20;;;;;;5002158;28;20037;-68
2021/05/01 07:33:11;;;;;;;5.07;2.25;;;20.60;77.10;;;;;;5009127;28;20375;-64
2021/05/01 07:35:39;;;;;;;5.82;2.40;;;20.50;77.60;;;;;;5009672;28;20322;-64
2021/05/01 07:38:12;;;;;;;4.20;1.80;;;20.40;78.80;;;;;;5018679;28;20030;-66
2021/05/01 07:40:40;;;;;;;3.90;2.03;;;20.40;79.50;;;;;;4997257;28;20022;-63
2021/05/01 07:43:09;;;;;;;4.32;2.03;;;20.30;79.90;;;;;;5000935;28;20083;-69
2021/05/01 07:45:37;;;;;;;3.85;1.85;;;20.30;80.40;;;;;;5004988;28;20025;-66
2021/05/01 07:48:09;;;;;;;4.25;1.85;;;20.20;81.10;;;;;;5002425;28;20030;-64
2021/05/01 07:50:36;;;;;;;3.13;1.63;;;20.10;81.90;;;;;;5006381;28;20529;-65
2021/05/01 07:53:04;;;;;;;4.35;2.55;;;20.00;82.50;;;;;;5005001;28;20037;-64
2021/05/01 07:55:32;;;;;;;4.28;2.30;;;19.90;83.60;;;;;;5005387;28;20060;-65
2021/05/01 07:57:59;;;;;;;6.15;1.92;;;19.70;83.80;;;;;;5005715;28;20176;-64
2021/05/01 08:00:26;;;;;;;5.80;2.00;;;19.60;85.00;;;;;;5006808;28;20018;-63
2021/05/01 08:02:54;;;;;;;4.38;1.92;;;19.60;86.00;;;;;;5005786;28;20022;-66
2021/05/01 08:05:21;;;;;;;5.07;1.67;;;19.60;86.30;;;;;;4999507;28;20076;-63
2021/05/01 08:07:48;;;;;;;5.43;1.88;;;19.50;86.90;;;;;;5005080;28;20026;-65
2021/05/01 08:10:17;;;;;;;4.80;2.10;;;19.50;87.10;;;;;;5005149;28;20548;-66
2021/05/01 08:12:45;;;;;;;6.78;1.95;;;19.40;87.90;;;;;;5004565;28;20116;-64
2021/05/01 08:15:12;;;;;;;5.32;2.60;;;19.40;87.90;;;;;;5005974;28;20021;-63
2021/05/01 08:17:43;;;;;;;6.78;2.67;;;19.40;87.90;;;;;;5004785;28;20136;-66
2021/05/01 08:20:13;;;;;;;5.35;1.45;;;19.30;88.10;;;;;;5007048;28;20022;-68
2021/05/01 08:22:41;;;;;;;3.97;1.48;;;19.20;88.40;;;;;;5006700;28;20422;-67
2021/05/01 08:25:11;;;;;;;7.18;2.00;;;19.20;88.70;;;;;;5005793;28;20026;-67
2021/05/01 08:27:39;;;;;;;4.80;1.58;;;19.10;88.60;;;;;;5009058;28;20018;-67
2021/05/01 08:30:10;;;;;;;5.88;2.40;;;19.00;89.20;;;;;;5007032;28;20101;-67
2021/05/01 08:32:38;;;;;;;5.22;1.83;;;18.90;89.20;;;;;;4993683;28;20021;-68
2021/05/01 08:35:06;;;;;;;6.22;2.30;;;18.80;89.30;;;;;;5005564;28;20399;-67
2021/05/01 08:37:33;;;;;;;5.07;1.90;;;18.80;89.90;;;;;;5008822;28;20045;-67
2021/05/01 08:40:00;;;;;;;4.60;1.60;;;18.80;90.00;;;;;;5005974;28;20375;-68
2021/05/01 08:42:28;;;;;;;4.82;1.75;;;18.70;90.40;;;;;;4997922;28;20018;-69
2021/05/01 08:45:00;;;;;;;4.40;2.40;;;18.70;90.30;;;;;;5005641;28;20367;-67
2021/05/01 08:47:31;;;;;;;7.53;4.47;;;18.60;90.40;;;;;;5001254;28;20026;-69
2021/05/01 08:50:02;;;;;;;9.43;1.77;;;18.50;90.50;;;;;;5005913;28;20034;-67
2021/05/01 08:52:29;;;;;;;7.90;2.00;;;18.50;90.80;;;;;;5003918;28;20038;-67
2021/05/01 08:54:56;;;;;;;7.18;2.63;;;18.40;90.90;;;;;;5003676;28;20034;-67
2021/05/01 08:57:32;;;;;;;4.80;2.28;;;18.40;91.10;;;;;;5003911;28;20022;-67
2021/05/01 08:59:59;;;;;;;3.65;1.75;;;18.40;91.20;;;;;;4998862;28;20018;-67
2021/05/01 09:02:29;;;;;;;6.10;1.92;;;18.40;91.30;;;;;;5001072;28;20029;-68
2021/05/01 09:04:57;;;;;;;6.25;1.95;;;18.30;91.30;;;;;;5002450;28;20026;-67
2021/05/01 09:07:27;;;;;;;4.47;2.10;;;18.20;91.50;;;;;;5003302;28;20538;-68
2021/05/01 09:09:56;;;;;;;6.05;2.20;;;18.20;91.60;;;;;;5006207;28;20095;-66
2021/05/01 09:12:40;;;;;;;6.82;1.80;;;18.00;92.10;;;;;;5005843;28;20125;-67
2021/05/01 09:15:22;;;;;;;7.32;2.38;;;18.00;91.90;;;;;;5004916;28;20236;-67
2021/05/01 09:18:02;;;;;;;9.07;1.83;;;17.90;92.30;;;;;;5005950;28;20053;-67
2021/05/01 09:20:30;;;;;;;5.85;1.80;;;17.90;92.00;;;;;;5000000;28;20149;-69
2021/05/01 09:23:00;;;;;;;4.55;1.55;;;17.90;92.20;;;;;;4998703;28;20044;-67
2021/05/01 09:25:30;;;;;;;4.35;2.35;;;17.80;92.20;;;;;;5005170;28;20021;-68
2021/05/01 09:28:02;;;;;;;8.43;2.05;;;17.80;92.40;;;;;;5004855;28;20054;-68
2021/05/01 09:30:32;;;;;;;4.80;1.85;;;17.80;92.50;;;;;;5007172;28;20105;-69
2021/05/01 09:33:25;;;;;;;6.10;1.75;;;17.80;92.50;;;;;;5003380;28;20470;-68
2021/05/01 09:36:16;;;;;;;6.45;1.98;;;17.70;92.70;;;;;;5001862;28;20037;-68
2021/05/01 09:38:44;;;;;;;5.00;2.00;;;17.60;92.70;;;;;;5000116;28;20038;-68
2021/05/01 09:41:14;;;;;;;3.75;1.60;;;17.70;93.00;;;;;;5003884;28;20022;-69
2021/05/01 09:43:58;;;;;;;5.30;1.90;;;17.60;93.00;;;;;;4999293;28;20072;-68
2021/05/01 09:46:26;;;;;;;7.00;2.63;;;17.70;93.10;;;;;;4997413;28;20022;-68
2021/05/01 09:49:14;;;;;;;4.65;1.90;;;17.60;93.10;;;;;;5003837;28;20136;-69
2021/05/01 09:51:59;;;;;;;6.63;2.55;;;17.60;93.20;;;;;;5001124;28;20386;-68
2021/05/01 09:54:27;;;;;;;8.25;2.28;;;17.50;93.20;;;;;;5002729;28;20092;-68
2021/05/01 09:56:56;;;;;;;3.80;1.90;;;17.40;93.50;;;;;;5004093;28;20084;-67
2021/05/01 09:59:47;;;;;;;5.70;2.17;;;17.40;93.40;;;;;;5001773;28;20029;-68
2021/05/01 10:02:20;;;;;;;5.50;2.28;;;17.30;93.80;;;;;;5001611;28;20350;-66
2021/05/01 10:05:05;;;;;;;8.60;2.10;;;17.20;93.60;;;;;;4999146;28;20036;-68
2021/05/01 10:07:36;;;;;;;9.77;2.05;;;17.10;93.60;;;;;;5002417;28;20025;-67
2021/05/01 10:10:04;;;;;;;7.70;2.20;;;17.10;93.60;;;;;;4999663;28;20036;-68
2021/05/01 10:12:37;;;;;;;5.20;2.30;;;17.10;93.80;;;;;;5001769;28;20034;-68
2021/05/01 10:15:27;;;;;;;7.60;2.55;;;17.00;93.90;;;;;;5002659;28;20112;-69
2021/05/01 10:17:55;;;;;;;7.35;2.78;;;17.00;94.00;;;;;;5006617;28;20042;-68
2021/05/01 10:20:22;;;;;;;7.15;2.08;;;16.90;93.90;;;;;;5012624;28;20029;-69
2021/05/01 10:22:51;;;;;;;7.07;2.97;;;16.90;94.20;;;;;;5010516;28;20472;-68
2021/05/01 10:25:25;;;;;;;6.30;2.70;;;16.80;94.40;;;;;;5002844;28;20117;-67
2021/05/01 10:30:36;;;;;;;4.65;2.33;;;16.80;94.70;;;;;;5002570;28;20348;-66
2021/05/01 10:33:41;;;;;;;9.93;2.50;;;16.70;94.30;;;;;;4998777;28;20383;-67
2021/05/01 10:36:07;;;;;;;4.72;2.17;;;16.60;94.30;;;;;;4997020;28;20456;-69
2021/05/01 10:38:35;;;;;;;7.15;2.83;;;16.60;94.60;;;;;;5002440;28;20025;-73
2021/05/01 10:41:05;;;;;;;6.38;2.28;;;16.50;94.70;;;;;;4997858;28;20030;-67
2021/05/01 10:43:37;;;;;;;3.95;2.50;;;16.50;94.80;;;;;;5001037;28;20087;-70
2021/05/01 10:46:11;;;;;;;7.53;2.20;;;16.50;94.90;;;;;;5001817;28;20037;-68
2021/05/01 10:48:53;;;;;;;4.78;2.50;;;16.40;94.60;;;;;;5002338;28;20064;-66
2021/05/01 10:51:26;;;;;;;4.25;2.20;;;16.40;94.70;;;;;;4990458;28;20030;-70
2021/05/01 10:54:08;;;;;;;;;;;16.30;94.70;;;;;;4999780;28;20030;-71
2021/05/01 10:56:35;;;;;;;5.65;2.78;;;16.30;94.80;;;;;;5002596;28;19944;-71
2021/05/01 10:59:10;;;;;;;6.28;2.55;;;16.30;95.20;;;;;;4996119;28;20030;-71
2021/05/01 11:01:48;;;;;;;10.85;3.30;;;16.40;95.30;;;;;;5001911;28;20041;-70
2021/05/01 11:04:23;;;;;;;10.73;3.22;;;16.50;95.10;;;;;;5002718;28;20449;-67
2021/05/01 11:07:08;;;;;;;10.35;2.60;;;16.60;95.00;;;;;;5008028;28;20077;-75
2021/05/01 11:09:50;;;;;;;5.15;2.35;;;16.60;95.10;;;;;;5008091;28;20128;-72
2021/05/01 11:12:18;;;;;;;8.00;2.83;;;16.60;94.90;;;;;;5003839;28;20164;-70
2021/05/01 11:15:10;;;;;;;9.10;3.10;;;16.40;94.90;;;;;;5002284;28;20075;-73
2021/05/01 11:17:47;;;;;;;11.23;2.85;;;16.50;95.40;;;;;;4991020;28;20042;-72
2021/05/01 11:20:17;;;;;;;11.48;3.78;;;16.50;95.00;;;;;;4992813;28;20445;-73
2021/05/01 11:22:52;;;;;;;8.05;3.10;;;16.50;95.20;;;;;;4994305;28;20022;-72
2021/05/01 11:25:22;;;;;;;14.38;3.40;;;16.50;95.40;;;;;;5002846;28;20040;-73
2021/05/01 11:27:51;;;;;;;12.43;3.90;;;16.50;95.20;;;;;;5002011;28;20164;-72
2021/05/01 11:30:21;;;;;;;15.35;3.80;;;16.40;95.10;;;;;;5001666;28;20026;-68
2021/05/01 11:32:50;;;;;;;16.08;4.07;;;16.40;95.20;;;;;;4995163;28;20029;-65
2021/05/01 11:35:20;;;;;;;17.60;4.78;;;16.50;95.10;;;;;;5000717;28;20453;-70
2021/05/01 11:37:52;;;;;;;17.35;4.28;;;16.50;95.20;;;;;;4999487;28;20022;-69
2021/05/01 11:40:22;;;;;;;14.77;3.60;;;16.40;95.20;;;;;;4995308;28;20022;-69
2021/05/01 11:42:51;;;;;;;15.50;3.85;;;16.40;95.10;;;;;;4995764;28;20057;-70
2021/05/01 11:45:39;;;;;;;17.73;4.22;;;16.30;95.10;;;;;;5000343;28;20026;-66
2021/05/01 11:48:11;;;;;;;13.38;4.22;;;16.30;95.50;;;;;;5004652;28;20056;-67
2021/05/01 11:50:41;;;;;;;13.48;4.25;;;16.30;95.40;;;;;;5003557;28;20113;-67
2021/05/01 11:53:14;;;;;;;15.65;4.30;;;16.30;95.50;;;;;;4994909;28;20032;-71
2021/05/01 11:56:01;;;;;;;13.13;4.20;;;16.20;95.30;;;;;;4999441;28;20022;-67
2021/05/01 11:58:36;;;;;;;7.97;3.35;;;16.20;95.90;;;;;;5000407;28;20029;-71
2021/05/01 12:01:21;;;;;;;10.35;6.47;;;16.30;95.50;;;;;;4999112;28;20056;-67
2021/05/01 12:04:16;;;;;;;13.68;5.78;;;16.20;95.50;;;;;;4999267;28;20071;-73
2021/05/01 12:06:47;;;;;;;11.68;3.10;;;16.10;95.50;;;;;;5000677;28;20057;-66
2021/05/01 12:09:29;;;;;;;5.00;2.95;;;16.00;95.90;;;;;;4997925;28;20030;-68
2021/05/01 12:11:58;;;;;;;10.38;2.88;;;15.90;95.50;;;;;;5004512;28;20026;-70
2021/05/01 12:14:29;;;;;;;11.15;3.63;;;15.80;95.50;;;;;;4661433;28;10000161;-68
2021/05/01 12:17:15;;;;;;;6.80;3.78;;;15.80;96.00;;;;;;4997884;28;20025;-69
2021/05/01 12:19:47;;;;;;;6.57;3.33;;;16.00;96.00;;;;;;4998969;28;20490;-69
2021/05/01 12:22:43;;;;;;;6.38;3.10;;;16.00;96.00;;;;;;4998000;28;20022;-68
2021/05/01 12:25:37;;;;;;;7.03;3.58;;;16.10;95.90;;;;;;4990494;28;20125;-74
2021/05/01 12:28:05;;;;;;;;;;;16.00;95.70;;;;;;5002552;28;20086;-72
2021/05/01 12:30:39;;;;;;;10.82;3.42;;;16.00;95.70;;;;;;4994841;28;19913;-67
2021/05/01 12:33:30;;;;;;;6.47;3.00;;;16.00;95.80;;;;;;4994158;28;20057;-68
2021/05/01 12:36:04;;;;;;;7.35;3.75;;;16.00;95.80;;;;;;4995970;28;20025;-70
2021/05/01 12:38:34;;;;;;;9.15;4.75;;;15.80;96.00;;;;;;4994768;28;20529;-69
2021/05/01 12:41:11;;;;;;;12.02;5.80;;;15.80;96.10;;;;;;4994623;28;20036;-70
2021/05/01 12:43:45;;;;;;;9.57;4.57;;;15.80;96.20;;;;;;4996064;28;20525;-67
2021/05/01 12:46:31;;;;;;;7.82;4.47;;;15.80;95.90;;;;;;4994522;28;20030;-70
2021/05/01 12:49:03;;;;;;;9.38;5.50;;;15.70;96.30;;;;;;4996655;28;20516;-71
2021/05/01 12:51:37;;;;;;;7.95;5.13;;;15.70;96.30;;;;;;4998151;28;20026;-70
2021/05/01 12:54:22;;;;;;;7.47;4.85;;;15.70;96.10;;;;;;4995647;28;20542;-70
2021/05/01 12:57:04;;;;;;;10.18;5.38;;;15.60;96.30;;;;;;4994468;28;20026;-71
2021/05/01 12:59:37;;;;;;;9.50;6.32;;;15.50;96.20;;;;;;4998865;28;20580;-68
2021/05/01 13:02:14;;;;;;;12.48;5.68;;;15.60;96.70;;;;;;4999378;28;20497;-70
2021/05/01 13:04:44;;;;;;;8.95;6.43;;;15.60;96.50;;;;;;4998335;28;20072;-69